createdAt,value
2022-11-27T00:01:37.472Z,10.47
2022-11-27T00:04:05.009Z,9.77
2022-11-27T00:06:32.896Z,8.93
2022-11-27T00:09:00.731Z,9.40
2022-11-27T00:11:28.612Z,14.70
2022-11-27T00:13:55.732Z,14.10
2022-11-27T00:16:23.731Z,22.90
2022-11-27T00:18:52.549Z,10.13
2022-11-27T00:21:21.218Z,12.97
2022-11-27T00:23:48.300Z,12.73
2022-11-27T00:26:15.672Z,12.63
2022-11-27T00:28:43.150Z,18.10
2022-11-27T00:31:13.544Z,6.10
2022-11-27T00:33:40.751Z,7.70
2022-11-27T00:36:10.138Z,10.53
2022-11-27T00:38:39.021Z,11.73
2022-11-27T00:41:06.863Z,8.03
2022-11-27T00:43:43.235Z,11.40
2022-11-27T00:46:11.500Z,10.77
2022-11-27T00:48:38.843Z,11.17
2022-11-27T00:51:06.704Z,10.10
2022-11-27T00:53:35.149Z,5.53
2022-11-27T00:56:02.796Z,14.77
2022-11-27T00:58:29.899Z,6.73
2022-11-27T01:00:57.387Z,9.07
2022-11-27T01:03:24.687Z,8.90
2022-11-27T01:05:51.863Z,11.80
2022-11-27T01:08:19.328Z,10.03
2022-11-27T01:10:54.739Z,5.07
2022-11-27T01:13:23.564Z,8.20
2022-11-27T01:15:59.987Z,8.20
2022-11-27T01:18:27.226Z,5.70
2022-11-27T01:20:54.367Z,8.07
2022-11-27T01:23:21.460Z,5.50
2022-11-27T01:25:48.591Z,7.73
2022-11-27T01:28:17.131Z,6.20
2022-11-27T01:30:44.334Z,12.47
2022-11-27T01:33:11.474Z,5.53
2022-11-27T01:35:38.549Z,7.00
2022-11-27T01:38:05.656Z,10.73
2022-11-27T01:40:32.874Z,9.27
2022-11-27T01:43:00.032Z,13.60
2022-11-27T01:45:28.633Z,8.87
2022-11-27T01:47:56.834Z,5.63
2022-11-27T01:50:25.472Z,10.20
2022-11-27T01:52:53.440Z,7.03
2022-11-27T01:55:26.135Z,6.23
2022-11-27T01:57:55.022Z,10.03
2022-11-27T02:00:22.355Z,8.77
2022-11-27T02:02:50.855Z,16.97
2022-11-27T02:05:19.439Z,10.97
2022-11-27T02:07:47.192Z,8.20
2022-11-27T02:10:14.677Z,8.00
2022-11-27T02:12:44.516Z,10.40
2022-11-27T02:15:14.992Z,4.70
2022-11-27T02:17:52.384Z,7.53
2022-11-27T02:20:28.483Z,9.63
2022-11-27T02:23:06.528Z,8.10
2022-11-27T02:25:39.551Z,8.03
2022-11-27T02:28:15.888Z,7.60
2022-11-27T02:30:47.028Z,12.93
2022-11-27T02:33:16.979Z,6.93
2022-11-27T02:35:48.673Z,6.87
2022-11-27T02:38:17.762Z,10.47
2022-11-27T02:40:49.596Z,11.30
2022-11-27T02:43:18.786Z,13.63
2022-11-27T02:45:48.911Z,11.20
2022-11-27T02:48:17.252Z,15.03
2022-11-27T02:50:45.129Z,18.90
2022-11-27T02:53:13.986Z,11.30
2022-11-27T02:55:41.866Z,8.20
2022-11-27T02:58:10.633Z,11.00
2022-11-27T03:00:38.718Z,13.00
2022-11-27T03:03:08.963Z,13.30
2022-11-27T03:05:39.665Z,9.37
2022-11-27T03:08:08.414Z,17.10
2022-11-27T03:10:40.128Z,10.60
2022-11-27T03:13:07.204Z,12.80
2022-11-27T03:15:40.317Z,15.97
2022-11-27T03:18:12.455Z,12.70
2022-11-27T03:20:41.688Z,17.07
2022-11-27T03:23:08.796Z,18.30
2022-11-27T03:25:35.906Z,12.00
2022-11-27T03:28:04.270Z,8.83
2022-11-27T03:30:31.401Z,13.93
2022-11-27T03:32:58.655Z,20.70
2022-11-27T03:35:27.647Z,16.33
2022-11-27T03:37:55.256Z,13.87
2022-11-27T03:40:23.982Z,20.83
2022-11-27T03:42:59.046Z,23.57
2022-11-27T03:45:30.666Z,24.33
2022-11-27T03:48:02.349Z,16.13
2022-11-27T03:50:34.008Z,18.73
2022-11-27T03:53:04.074Z,21.60
2022-11-27T03:55:37.682Z,19.13
2022-11-27T03:58:06.813Z,18.40
2022-11-27T04:00:38.895Z,22.43
2022-11-27T04:03:09.157Z,20.33
2022-11-27T04:05:37.781Z,24.10
2022-11-27T04:08:05.273Z,27.57
2022-11-27T04:10:32.328Z,24.47
2022-11-27T04:12:59.467Z,23.80
2022-11-27T04:15:26.558Z,19.00
2022-11-27T04:17:53.636Z,15.23
2022-11-27T04:20:20.721Z,21.13
2022-11-27T04:22:49.147Z,19.03
2022-11-27T04:25:16.227Z,17.07
2022-11-27T04:27:43.323Z,14.80
2022-11-27T04:30:10.855Z,17.20
2022-11-27T04:32:37.977Z,13.87
2022-11-27T04:35:05.334Z,13.97
2022-11-27T04:37:32.412Z,20.50
2022-11-27T04:40:00.836Z,16.20
2022-11-27T04:42:28.110Z,18.03
2022-11-27T04:44:55.224Z,14.30
2022-11-27T04:47:22.297Z,18.63
2022-11-27T04:49:49.397Z,20.43
2022-11-27T04:52:16.512Z,11.97
2022-11-27T04:54:43.768Z,14.60
2022-11-27T04:57:12.234Z,19.87
2022-11-27T04:59:39.353Z,21.80
2022-11-27T05:02:06.443Z,26.40
2022-11-27T05:04:33.663Z,16.53
2022-11-27T05:07:00.785Z,18.57
2022-11-27T05:09:27.853Z,16.37
2022-11-27T05:11:54.951Z,20.20
2022-11-27T05:14:23.505Z,16.33
2022-11-27T05:16:51.654Z,10.70
2022-11-27T05:19:19.587Z,23.30
2022-11-27T05:21:47.148Z,17.00
2022-11-27T05:24:14.589Z,13.13
2022-11-27T05:26:41.769Z,25.33
2022-11-27T05:29:09.674Z,15.63
2022-11-27T05:31:38.454Z,11.47
2022-11-27T05:34:06.049Z,10.10
2022-11-27T05:36:33.758Z,13.00
2022-11-27T05:39:01.271Z,18.73
2022-11-27T05:41:28.390Z,12.73
2022-11-27T05:43:55.486Z,13.97
2022-11-27T05:46:23.298Z,19.20
2022-11-27T05:48:51.798Z,16.57
2022-11-27T05:51:19.315Z,10.77
2022-11-27T05:53:46.396Z,17.03
2022-11-27T05:56:14.564Z,14.40
2022-11-27T05:58:42.297Z,13.13
2022-11-27T06:01:09.946Z,16.90
2022-11-27T06:03:37.320Z,12.13
2022-11-27T06:06:07.579Z,14.97
2022-11-27T06:08:34.665Z,16.57
2022-11-27T06:11:06.195Z,14.90
2022-11-27T06:13:33.264Z,11.50
2022-11-27T06:16:04.211Z,10.40
2022-11-27T06:18:31.328Z,22.33
2022-11-27T06:20:58.435Z,7.83
2022-11-27T06:23:26.931Z,11.10
2022-11-27T06:25:54.053Z,12.50
2022-11-27T06:28:21.125Z,17.20
2022-11-27T06:30:48.224Z,15.90
2022-11-27T06:33:15.281Z,18.97
2022-11-27T06:35:42.364Z,14.07
2022-11-27T06:38:09.444Z,11.43
2022-11-27T06:40:37.860Z,15.97
2022-11-27T06:43:04.966Z,17.90
2022-11-27T06:45:32.129Z,14.43
2022-11-27T06:47:59.246Z,10.73
2022-11-27T06:50:26.350Z,9.07
2022-11-27T06:52:53.439Z,15.97
2022-11-27T06:55:20.539Z,10.47
2022-11-27T06:57:51.626Z,9.30
2022-11-27T07:00:19.380Z,12.37
2022-11-27T07:02:46.466Z,16.60
2022-11-27T07:05:13.547Z,12.73
2022-11-27T07:07:43.783Z,11.60
2022-11-27T07:10:11.348Z,10.73
2022-11-27T07:12:38.439Z,10.73
2022-11-27T07:15:08.148Z,12.70
2022-11-27T07:17:35.236Z,11.00
2022-11-27T07:20:02.340Z,10.90
2022-11-27T07:22:29.413Z,12.53
2022-11-27T07:24:56.473Z,13.17
2022-11-27T07:27:23.573Z,13.43
2022-11-27T07:29:50.696Z,9.43
2022-11-27T07:32:19.143Z,15.10
2022-11-27T07:34:46.252Z,12.63
2022-11-27T07:37:13.357Z,11.03
2022-11-27T07:40:01.291Z,13.33
2022-11-27T07:42:43.714Z,11.73
2022-11-27T07:45:11.560Z,9.47
2022-11-27T07:47:40.212Z,11.47
2022-11-27T07:50:09.108Z,13.00
2022-11-27T07:52:41.125Z,10.47
2022-11-27T07:55:09.440Z,10.63
2022-11-27T07:57:36.561Z,15.03
2022-11-27T08:00:04.555Z,14.73
2022-11-27T08:02:31.636Z,10.37
2022-11-27T08:05:00.148Z,11.40
2022-11-27T08:07:27.822Z,11.90
2022-11-27T08:09:54.980Z,12.03
2022-11-27T08:12:23.455Z,8.80
2022-11-27T08:14:50.618Z,8.77
2022-11-27T08:17:17.892Z,7.63
2022-11-27T08:19:44.960Z,9.93
2022-11-27T08:22:14.014Z,10.03
2022-11-27T08:24:41.362Z,13.47
2022-11-27T08:27:08.626Z,14.63
2022-11-27T08:29:35.729Z,11.33
2022-11-27T08:32:02.858Z,10.10
2022-11-27T08:34:30.014Z,8.87
2022-11-27T08:36:57.146Z,13.00
2022-11-27T08:39:25.651Z,9.80
2022-11-27T08:41:52.751Z,9.03
2022-11-27T08:44:20.139Z,9.53
2022-11-27T08:46:47.212Z,15.23
2022-11-27T08:49:14.315Z,6.47
2022-11-27T08:51:41.416Z,6.70
2022-11-27T08:54:08.502Z,11.57
2022-11-27T08:56:36.960Z,10.33
2022-11-27T08:59:04.076Z,9.87
2022-11-27T09:01:32.071Z,8.67
2022-11-27T09:03:59.382Z,6.17
2022-11-27T09:06:27.580Z,10.80
2022-11-27T09:08:56.799Z,10.00
2022-11-27T09:11:24.131Z,8.37
2022-11-27T09:13:52.580Z,17.97
2022-11-27T09:16:20.520Z,10.40
2022-11-27T09:18:48.445Z,6.67
2022-11-27T09:21:16.393Z,10.70
2022-11-27T09:23:43.466Z,12.70
2022-11-27T09:26:11.702Z,10.30
2022-11-27T09:28:39.532Z,10.80
2022-11-27T09:31:08.807Z,10.83
2022-11-27T09:33:37.263Z,7.10
2022-11-27T09:36:05.324Z,8.60
2022-11-27T09:38:32.537Z,11.70
2022-11-27T09:41:03.369Z,9.37
2022-11-27T09:43:32.262Z,7.80
2022-11-27T09:46:00.280Z,6.10
2022-11-27T09:48:33.891Z,9.50
2022-11-27T09:51:02.816Z,11.90
2022-11-27T09:53:33.512Z,7.10
2022-11-27T09:56:01.182Z,10.93
2022-11-27T09:58:35.904Z,11.40
2022-11-27T10:01:09.959Z,8.73
2022-11-27T10:03:40.721Z,10.90
2022-11-27T10:06:23.244Z,6.20
2022-11-27T10:08:58.542Z,9.53
2022-11-27T10:11:29.711Z,9.77
2022-11-27T10:14:03.129Z,15.73
2022-11-27T10:16:34.188Z,8.63
2022-11-27T10:19:06.283Z,6.70
2022-11-27T10:21:39.970Z,10.00
2022-11-27T10:24:13.467Z,8.37
2022-11-27T10:26:41.565Z,7.63
2022-11-27T10:29:15.648Z,13.17
2022-11-27T10:31:45.630Z,12.53
2022-11-27T10:34:21.319Z,11.67
2022-11-27T10:36:49.502Z,13.27
2022-11-27T10:39:17.655Z,10.57
2022-11-27T10:41:49.807Z,10.43
2022-11-27T10:44:29.413Z,12.37
2022-11-27T10:46:59.205Z,9.47
2022-11-27T10:49:27.650Z,13.90
2022-11-27T10:51:54.732Z,20.17
2022-11-27T10:54:23.737Z,10.33
2022-11-27T10:56:59.284Z,7.90
2022-11-27T10:59:33.052Z,15.03
2022-11-27T11:02:01.803Z,6.60
2022-11-27T11:04:39.230Z,8.10
2022-11-27T11:07:23.715Z,19.57
2022-11-27T11:09:50.885Z,8.90
2022-11-27T11:12:19.157Z,7.93
2022-11-27T11:14:51.015Z,10.70
2022-11-27T11:17:18.640Z,9.67
2022-11-27T11:19:47.156Z,6.40
2022-11-27T11:22:16.067Z,9.67
2022-11-27T11:24:46.639Z,10.00
2022-11-27T11:27:15.241Z,9.93
2022-11-27T11:29:47.069Z,14.40
2022-11-27T11:32:16.108Z,6.80
2022-11-27T11:34:44.325Z,9.20
2022-11-27T11:37:24.108Z,9.87
2022-11-27T11:39:56.001Z,9.23
2022-11-27T11:42:24.975Z,9.00
2022-11-27T11:44:52.805Z,7.70
2022-11-27T11:47:20.525Z,9.77
2022-11-27T11:49:47.628Z,9.03
2022-11-27T11:52:30.770Z,7.63
2022-11-27T11:55:00.701Z,9.00
2022-11-27T11:57:47.319Z,10.00
2022-11-27T12:00:16.307Z,12.27
2022-11-27T12:02:54.247Z,17.30
2022-11-27T12:05:26.902Z,7.60
2022-11-27T12:07:59.462Z,9.70
2022-11-27T12:10:28.554Z,11.10
2022-11-27T12:12:59.802Z,6.33
2022-11-27T12:15:30.351Z,12.50
2022-11-27T12:17:58.966Z,6.37
2022-11-27T12:20:28.108Z,7.83
2022-11-27T12:23:19.132Z,10.97
2022-11-27T12:25:48.077Z,8.83
2022-11-27T12:28:22.955Z,7.27
2022-11-27T12:30:52.362Z,8.03
2022-11-27T12:33:26.305Z,8.50
2022-11-27T12:35:59.117Z,5.47
2022-11-27T12:38:32.894Z,10.20
2022-11-27T12:41:09.731Z,9.87
2022-11-27T12:43:38.414Z,7.40
2022-11-27T12:46:10.601Z,7.20
2022-11-27T12:48:39.869Z,5.87
2022-11-27T12:51:08.618Z,8.10
2022-11-27T12:53:39.714Z,10.93
2022-11-27T12:56:09.869Z,6.43
2022-11-27T12:58:39.275Z,9.07
2022-11-27T13:01:08.426Z,5.33
2022-11-27T13:03:37.416Z,7.40
2022-11-27T13:06:06.941Z,6.60
2022-11-27T13:08:42.077Z,5.30
2022-11-27T13:11:11.641Z,5.40
2022-11-27T13:13:41.058Z,7.60
2022-11-27T13:16:11.790Z,9.00
2022-11-27T13:18:40.207Z,8.03
2022-11-27T13:21:09.772Z,9.63
2022-11-27T13:23:36.969Z,5.70
2022-11-27T13:26:05.103Z,5.13
2022-11-27T13:28:36.685Z,5.50
2022-11-27T13:31:04.412Z,6.40
2022-11-27T13:33:35.385Z,8.50
2022-11-27T13:36:03.485Z,3.63
2022-11-27T13:38:30.775Z,9.10
2022-11-27T13:40:59.729Z,6.23
2022-11-27T13:43:28.169Z,7.73
2022-11-27T13:46:03.438Z,7.73
2022-11-27T13:48:33.474Z,5.40
2022-11-27T13:51:00.765Z,10.23
2022-11-27T13:53:31.264Z,8.47
2022-11-27T13:55:58.364Z,5.93
2022-11-27T13:58:29.544Z,8.13
2022-11-27T14:00:56.810Z,9.23
2022-11-27T14:03:26.263Z,4.40
2022-11-27T14:05:53.518Z,13.13
2022-11-27T14:08:22.262Z,4.83
2022-11-27T14:10:50.488Z,5.50
2022-11-27T14:13:17.842Z,7.43
2022-11-27T14:15:45.109Z,4.60
2022-11-27T14:18:18.102Z,4.90
2022-11-27T14:20:48.503Z,5.60
2022-11-27T14:23:26.605Z,4.93
2022-11-27T14:26:01.641Z,5.37
2022-11-27T14:28:31.160Z,5.20
2022-11-27T14:30:59.032Z,3.97
2022-11-27T14:33:27.062Z,5.33
2022-11-27T14:35:56.272Z,5.93
2022-11-27T14:38:24.230Z,5.17
2022-11-27T14:40:52.176Z,3.40
2022-11-27T14:43:19.826Z,3.17
2022-11-27T14:45:47.752Z,5.80
2022-11-27T14:48:22.438Z,7.40
2022-11-27T14:50:50.482Z,6.50
2022-11-27T14:53:19.841Z,4.30
2022-11-27T14:55:48.108Z,8.10
2022-11-27T14:58:18.880Z,6.93
2022-11-27T15:00:51.364Z,4.13
2022-11-27T15:03:18.620Z,4.67
2022-11-27T15:05:51.584Z,5.47
2022-11-27T15:08:20.187Z,6.77
2022-11-27T15:10:47.317Z,4.23
2022-11-27T15:13:21.208Z,6.03
2022-11-27T15:15:54.107Z,4.20
2022-11-27T15:18:22.146Z,4.60
2022-11-27T15:20:49.381Z,5.37
2022-11-27T15:23:18.238Z,4.70
2022-11-27T15:25:47.808Z,11.30
2022-11-27T15:28:28.297Z,5.23
2022-11-27T15:30:56.002Z,5.10
2022-11-27T15:33:26.937Z,4.43
2022-11-27T15:35:54.415Z,3.70
2022-11-27T15:38:21.799Z,4.67
2022-11-27T15:40:58.581Z,6.17
2022-11-27T15:43:25.683Z,6.47
2022-11-27T15:45:52.836Z,4.93
2022-11-27T15:48:21.705Z,4.77
2022-11-27T15:50:51.868Z,7.83
2022-11-27T15:53:19.392Z,4.13
2022-11-27T15:55:46.473Z,6.30
2022-11-27T15:58:15.997Z,4.60
2022-11-27T16:00:43.088Z,9.43
2022-11-27T16:03:10.290Z,6.83
2022-11-27T16:05:37.378Z,8.47
2022-11-27T16:08:04.715Z,7.47
2022-11-27T16:10:31.895Z,7.43
2022-11-27T16:12:59.027Z,5.23
2022-11-27T16:15:32.598Z,6.50
2022-11-27T16:18:00.135Z,5.50
2022-11-27T16:20:27.617Z,7.83
2022-11-27T16:22:54.682Z,6.00
2022-11-27T16:25:21.805Z,12.93
2022-11-27T16:27:49.090Z,5.57
2022-11-27T16:30:16.370Z,5.20
2022-11-27T16:32:44.815Z,8.53
2022-11-27T16:35:13.016Z,7.47
2022-11-27T16:37:41.724Z,8.20
2022-11-27T16:40:09.158Z,9.10
2022-11-27T16:42:36.255Z,5.57
2022-11-27T16:45:03.389Z,4.03
2022-11-27T16:47:33.605Z,6.07
2022-11-27T16:50:02.802Z,6.60
2022-11-27T16:52:30.784Z,7.43
2022-11-27T16:54:58.016Z,5.30
2022-11-27T16:57:25.203Z,5.90
2022-11-27T16:59:52.843Z,4.77
2022-11-27T17:02:20.588Z,6.33
2022-11-27T17:04:47.785Z,5.73
2022-11-27T17:07:16.250Z,4.70
2022-11-27T17:09:43.398Z,5.90
2022-11-27T17:12:10.475Z,9.00
2022-11-27T17:14:37.876Z,8.43
2022-11-27T17:17:05.220Z,6.60
2022-11-27T17:19:32.306Z,6.67
2022-11-27T17:22:00.149Z,5.90
2022-11-27T17:24:29.063Z,6.50
2022-11-27T17:26:56.324Z,5.40
2022-11-27T17:29:33.573Z,8.27
2022-11-27T17:32:02.438Z,5.43
2022-11-27T17:34:29.564Z,5.27
2022-11-27T17:36:56.651Z,6.53
2022-11-27T17:39:24.349Z,5.67
2022-11-27T17:41:52.793Z,7.00
2022-11-27T17:44:19.945Z,6.10
2022-11-27T17:46:47.118Z,6.70
2022-11-27T17:49:14.450Z,8.80
2022-11-27T17:51:41.725Z,6.60
2022-11-27T17:54:11.357Z,6.20
2022-11-27T17:56:39.097Z,6.37
2022-11-27T17:59:07.604Z,4.77
2022-11-27T18:01:34.923Z,5.60
2022-11-27T18:04:03.516Z,6.83
2022-11-27T18:06:31.391Z,5.10
2022-11-27T18:08:59.143Z,5.27
2022-11-27T18:11:27.402Z,8.73
2022-11-27T18:13:54.623Z,5.50
2022-11-27T18:16:25.844Z,7.00
2022-11-27T18:18:53.031Z,7.23
2022-11-27T18:21:20.903Z,5.33
2022-11-27T18:29:23.124Z,6.77
2022-11-27T18:31:51.583Z,6.20
2022-11-27T18:34:18.834Z,6.67
2022-11-27T18:36:46.106Z,6.13
2022-11-27T18:39:13.430Z,9.73
2022-11-27T18:41:40.838Z,6.27
2022-11-27T18:44:08.890Z,6.27
2022-11-27T18:46:36.296Z,4.47
2022-11-27T18:49:04.794Z,8.30
2022-11-27T18:51:32.349Z,7.03
2022-11-27T18:53:59.439Z,6.00
2022-11-27T18:56:27.161Z,7.03
2022-11-27T18:58:54.383Z,6.83
2022-11-27T19:01:23.109Z,5.10
2022-11-27T19:03:50.690Z,12.73
2022-11-27T19:06:21.195Z,5.60
2022-11-27T19:08:48.930Z,7.93
2022-11-27T19:11:17.115Z,9.30
2022-11-27T19:13:44.245Z,6.70
2022-11-27T19:16:17.352Z,5.17
2022-11-27T19:18:44.533Z,7.43
2022-11-27T19:21:15.720Z,5.03
2022-11-27T19:23:45.013Z,6.27
2022-11-27T19:26:12.844Z,9.10
2022-11-27T19:28:40.195Z,4.87
2022-11-27T19:31:08.317Z,6.37
2022-11-27T19:33:35.492Z,7.30
2022-11-27T19:36:03.434Z,6.33
2022-11-27T19:38:30.687Z,5.17
2022-11-27T19:40:59.201Z,8.53
2022-11-27T19:43:26.297Z,5.43
2022-11-27T19:45:53.452Z,7.50
2022-11-27T19:48:23.364Z,6.50
2022-11-27T19:50:51.542Z,7.30
2022-11-27T19:53:19.131Z,7.80
2022-11-27T19:55:52.927Z,5.93
2022-11-27T19:58:21.359Z,8.23
2022-11-27T20:00:49.778Z,5.83
2022-11-27T20:03:16.913Z,6.67
2022-11-27T20:05:43.991Z,7.87
2022-11-27T20:08:11.101Z,6.30
2022-11-27T20:10:38.221Z,7.07
2022-11-27T20:13:05.550Z,5.10
2022-11-27T20:15:34.247Z,6.10
2022-11-27T20:18:01.328Z,10.60
2022-11-27T20:20:33.873Z,6.10
2022-11-27T20:23:01.526Z,8.30
2022-11-27T20:25:28.950Z,5.70
2022-11-27T20:27:56.019Z,7.50
2022-11-27T20:30:24.315Z,9.43
2022-11-27T20:32:52.788Z,9.90
2022-11-27T20:35:20.239Z,5.73
2022-11-27T20:37:47.322Z,5.80
2022-11-27T20:40:14.715Z,6.87
2022-11-27T20:42:41.843Z,6.93
2022-11-27T20:45:09.309Z,6.83
2022-11-27T20:47:36.606Z,6.00
2022-11-27T20:50:05.481Z,8.80
2022-11-27T20:52:33.909Z,4.50
2022-11-27T20:55:00.983Z,6.50
2022-11-27T20:57:28.388Z,11.10
2022-11-27T20:59:55.643Z,8.83
2022-11-27T21:02:22.993Z,9.90
2022-11-27T21:04:50.126Z,9.80
2022-11-27T21:07:18.567Z,7.47
2022-11-27T21:09:45.756Z,8.50
2022-11-27T21:12:13.407Z,6.53
2022-11-27T21:14:40.516Z,8.67
2022-11-27T21:17:08.960Z,9.20
2022-11-27T21:19:36.061Z,7.67
2022-11-27T21:22:03.367Z,8.80
2022-11-27T21:24:31.853Z,10.90
2022-11-27T21:26:59.028Z,13.20
2022-11-27T21:29:26.415Z,5.87
2022-11-27T21:31:54.288Z,13.10
2022-11-27T21:34:21.493Z,7.73
2022-11-27T21:36:49.363Z,7.60
2022-11-27T21:39:16.893Z,7.60
2022-11-27T21:41:45.329Z,15.80
2022-11-27T21:44:13.407Z,18.70
2022-11-27T21:46:40.510Z,8.20
2022-11-27T21:49:07.616Z,12.20
2022-11-27T21:51:34.772Z,8.00
2022-11-27T21:54:06.359Z,11.87
2022-11-27T21:56:33.584Z,7.67
2022-11-27T21:59:02.047Z,9.23
2022-11-27T22:01:29.230Z,9.13
2022-11-27T22:03:57.233Z,8.77
2022-11-27T22:06:25.495Z,9.70
2022-11-27T22:08:54.324Z,9.30
2022-11-27T22:11:23.095Z,9.10
2022-11-27T22:13:50.495Z,11.90
2022-11-27T22:16:20.385Z,12.00
2022-11-27T22:18:48.218Z,11.47
2022-11-27T22:21:15.863Z,7.97
2022-11-27T22:23:43.762Z,11.03
2022-11-27T22:26:12.225Z,12.80
2022-11-27T22:28:39.612Z,13.17
2022-11-27T22:31:09.960Z,11.73
2022-11-27T22:33:39.861Z,12.10
2022-11-27T22:36:14.140Z,13.10
2022-11-27T22:38:41.265Z,10.30
2022-11-27T22:41:08.521Z,11.47
2022-11-27T22:43:36.365Z,7.77
2022-11-27T22:46:05.029Z,9.03
2022-11-27T22:48:32.443Z,13.70
2022-11-27T22:51:00.883Z,15.30
2022-11-27T22:53:28.215Z,12.40
2022-11-27T22:55:55.342Z,15.33
2022-11-27T22:58:22.880Z,11.80
2022-11-27T23:00:54.515Z,10.57
2022-11-27T23:03:21.631Z,13.03
2022-11-27T23:05:48.781Z,10.70
2022-11-27T23:08:17.243Z,10.90
2022-11-27T23:10:44.393Z,16.93
2022-11-27T23:13:11.504Z,12.43
2022-11-27T23:15:38.572Z,15.67
2022-11-27T23:18:05.719Z,12.70
2022-11-27T23:20:33.233Z,15.83
2022-11-27T23:23:00.480Z,13.90
2022-11-27T23:25:30.334Z,10.60
2022-11-27T23:27:57.474Z,13.90
2022-11-27T23:30:24.576Z,15.63
2022-11-27T23:32:51.669Z,15.50
2022-11-27T23:35:18.826Z,13.63
2022-11-27T23:37:45.936Z,13.00
2022-11-27T23:40:13.137Z,11.60
2022-11-27T23:42:41.758Z,9.50
2022-11-27T23:45:09.538Z,13.80
2022-11-27T23:47:36.653Z,13.13
2022-11-27T23:50:03.808Z,7.87
2022-11-27T23:52:30.945Z,10.50
2022-11-27T23:54:58.090Z,12.13
2022-11-27T23:57:25.180Z,13.40
2022-11-27T23:59:53.624Z,15.00
